createdAt,value
2023-08-15T00:01:01.250Z,21.22
2023-08-15T00:03:46.516Z,21.11
2023-08-15T00:06:31.506Z,21.06
2023-08-15T00:09:16.612Z,20.96
2023-08-15T00:12:01.761Z,20.95
2023-08-15T00:14:47.073Z,20.95
2023-08-15T00:17:32.140Z,20.95
2023-08-15T00:20:17.300Z,20.96
2023-08-15T00:23:02.344Z,20.92
2023-08-15T00:25:47.213Z,20.86
2023-08-15T00:28:32.344Z,20.83
2023-08-15T00:31:17.344Z,20.79
2023-08-15T00:34:02.532Z,20.73
2023-08-15T00:36:47.418Z,20.66
2023-08-15T00:39:32.556Z,20.60
2023-08-15T00:42:17.524Z,20.61
2023-08-15T00:45:02.715Z,20.55
2023-08-15T00:47:47.985Z,20.57
2023-08-15T00:50:33.011Z,20.55
2023-08-15T00:53:18.183Z,20.51
2023-08-15T00:56:03.314Z,20.45
2023-08-15T00:58:48.393Z,20.42
2023-08-15T01:01:33.472Z,20.40
2023-08-15T01:04:18.631Z,20.37
2023-08-15T01:07:03.733Z,20.34
2023-08-15T01:09:48.886Z,20.27
2023-08-15T01:12:34.177Z,20.21
2023-08-15T01:15:19.242Z,20.16
2023-08-15T01:18:04.572Z,20.11
2023-08-15T01:20:49.523Z,20.00
2023-08-15T01:23:34.630Z,19.96
2023-08-15T01:26:19.732Z,19.93
2023-08-15T01:29:04.735Z,19.86
2023-08-15T01:31:49.990Z,19.84
2023-08-15T01:34:35.024Z,19.79
2023-08-15T01:37:20.470Z,19.78
2023-08-15T01:40:05.336Z,19.78
2023-08-15T01:42:50.512Z,19.78
2023-08-15T01:45:35.666Z,19.78
2023-08-15T01:48:20.786Z,19.80
2023-08-15T01:51:06.011Z,19.79
2023-08-15T01:53:51.071Z,19.79
2023-08-15T01:56:36.075Z,19.76
2023-08-15T01:59:21.168Z,19.62
2023-08-15T02:02:06.280Z,19.61
2023-08-15T02:04:51.371Z,19.52
2023-08-15T02:07:36.514Z,19.53
2023-08-15T02:10:21.615Z,19.50
2023-08-15T02:13:06.768Z,19.50
2023-08-15T02:15:51.958Z,19.51
2023-08-15T02:18:37.963Z,19.50
2023-08-15T02:21:24.136Z,19.45
2023-08-15T02:24:09.263Z,19.44
2023-08-15T02:26:54.273Z,19.41
2023-08-15T02:29:39.641Z,19.35
2023-08-15T02:32:24.486Z,19.38
2023-08-15T02:35:09.696Z,19.35
2023-08-15T02:37:54.620Z,19.40
2023-08-15T02:40:39.841Z,19.37
2023-08-15T02:43:24.955Z,19.33
2023-08-15T02:46:09.984Z,19.28
2023-08-15T02:48:55.136Z,19.28
2023-08-15T02:51:40.179Z,19.30
2023-08-15T02:54:25.264Z,19.30
2023-08-15T02:57:10.358Z,19.32
2023-08-15T02:59:55.807Z,19.28
2023-08-15T03:02:41.039Z,19.26
2023-08-15T03:05:26.001Z,19.25
2023-08-15T03:08:11.252Z,19.24
2023-08-15T03:10:56.321Z,19.22
2023-08-15T03:13:41.476Z,19.17
2023-08-15T03:16:26.662Z,19.15
2023-08-15T03:19:11.895Z,19.13
2023-08-15T03:21:57.014Z,19.15
2023-08-15T03:24:42.123Z,19.08
2023-08-15T03:27:27.257Z,19.04
2023-08-15T03:30:12.204Z,19.09
2023-08-15T03:32:57.441Z,19.09
2023-08-15T03:35:42.493Z,19.10
2023-08-15T03:38:27.536Z,19.11
2023-08-15T03:41:12.483Z,19.08
2023-08-15T03:43:57.560Z,19.07
2023-08-15T03:46:42.776Z,19.08
2023-08-15T03:49:27.762Z,19.09
2023-08-15T03:52:13.014Z,19.05
2023-08-15T03:54:58.014Z,19.09
2023-08-15T03:57:43.171Z,19.07
2023-08-15T04:00:28.174Z,19.03
2023-08-15T04:03:13.379Z,18.99
2023-08-15T04:05:58.508Z,19.06
2023-08-15T04:08:43.492Z,19.07
2023-08-15T04:11:28.639Z,19.05
2023-08-15T04:14:13.727Z,19.06
2023-08-15T04:16:58.732Z,19.01
2023-08-15T04:19:43.896Z,18.95
2023-08-15T04:22:29.075Z,18.96
2023-08-15T04:25:14.116Z,18.95
2023-08-15T04:27:59.189Z,18.94
2023-08-15T04:30:44.424Z,18.92
2023-08-15T04:33:29.435Z,18.92
2023-08-15T04:36:14.619Z,18.88
2023-08-15T04:38:59.627Z,18.86
2023-08-15T04:41:44.897Z,18.86
2023-08-15T04:44:29.941Z,18.87
2023-08-15T04:47:15.058Z,18.88
2023-08-15T04:50:00.211Z,18.89
2023-08-15T04:52:45.279Z,18.91
2023-08-15T04:55:30.502Z,18.93
2023-08-15T04:58:15.575Z,18.98
2023-08-15T05:01:00.983Z,19.05
2023-08-15T05:03:45.992Z,19.18
2023-08-15T05:06:31.044Z,19.25
2023-08-15T05:09:16.339Z,19.35
2023-08-15T05:12:01.402Z,19.44
2023-08-15T05:14:46.733Z,19.50
2023-08-15T05:17:32.385Z,19.53
2023-08-15T05:20:17.255Z,19.58
2023-08-15T05:23:02.296Z,19.65
2023-08-15T05:25:47.484Z,19.71
2023-08-15T05:28:32.729Z,19.74
2023-08-15T05:31:17.859Z,19.86
2023-08-15T05:34:03.250Z,19.96
2023-08-15T05:36:48.193Z,19.98
2023-08-15T05:39:33.320Z,20.01
2023-08-15T05:42:18.298Z,20.15
2023-08-15T05:45:03.359Z,20.25
2023-08-15T05:47:48.538Z,20.35
2023-08-15T05:50:33.764Z,20.46
2023-08-15T05:53:19.009Z,21.09
2023-08-15T05:56:04.080Z,23.33
2023-08-15T05:58:49.371Z,26.06
2023-08-15T06:01:34.386Z,27.91
2023-08-15T06:04:19.471Z,29.44
2023-08-15T06:07:04.629Z,30.73
2023-08-15T06:09:49.571Z,31.82
2023-08-15T06:12:34.693Z,32.02
2023-08-15T06:15:19.664Z,32.65
2023-08-15T06:18:04.652Z,33.50
2023-08-15T06:20:49.553Z,34.19
2023-08-15T06:23:34.616Z,35.05
2023-08-15T06:26:19.473Z,35.82
2023-08-15T06:29:04.445Z,36.51
2023-08-15T06:31:49.620Z,36.76
2023-08-15T06:34:34.564Z,36.95
2023-08-15T06:37:19.943Z,37.13
2023-08-15T06:40:05.134Z,37.47
2023-08-15T06:42:50.311Z,37.94
2023-08-15T06:45:35.136Z,38.40
2023-08-15T06:48:20.248Z,38.58
2023-08-15T06:51:05.338Z,38.32
2023-08-15T06:53:50.947Z,37.88
2023-08-15T06:56:36.081Z,37.99
2023-08-15T06:59:21.164Z,38.85
2023-08-15T07:02:06.099Z,38.91
2023-08-15T07:04:51.010Z,38.98
2023-08-15T07:07:36.067Z,39.49
2023-08-15T07:10:20.937Z,40.08
2023-08-15T07:13:05.874Z,40.49
2023-08-15T07:15:51.025Z,40.90
2023-08-15T07:18:36.016Z,41.10
2023-08-15T07:21:21.023Z,41.23
2023-08-15T07:24:06.005Z,41.30
2023-08-15T07:26:51.118Z,41.37
2023-08-15T07:29:36.122Z,41.06
2023-08-15T07:32:21.655Z,40.86
2023-08-15T07:35:06.765Z,40.49
2023-08-15T07:37:51.725Z,38.95
2023-08-15T07:40:36.676Z,35.91
2023-08-15T07:43:21.737Z,33.04
2023-08-15T07:46:06.901Z,30.79
2023-08-15T07:48:51.882Z,29.24
2023-08-15T07:51:36.942Z,28.01
2023-08-15T07:54:22.240Z,26.86
2023-08-15T07:57:07.281Z,26.16
2023-08-15T07:59:52.459Z,26.09
2023-08-15T08:02:37.551Z,25.85
2023-08-15T08:05:23.758Z,25.21
2023-08-15T08:08:08.658Z,25.31
2023-08-15T08:10:53.654Z,25.53
2023-08-15T08:13:38.684Z,25.71
2023-08-15T08:16:23.665Z,25.84
2023-08-15T08:19:08.704Z,25.88
2023-08-15T08:21:53.717Z,26.09
2023-08-15T08:24:38.898Z,26.34
2023-08-15T08:27:23.988Z,26.64
2023-08-15T08:30:09.109Z,26.90
2023-08-15T08:32:54.115Z,27.00
2023-08-15T08:35:39.152Z,26.75
2023-08-15T08:38:27.961Z,26.81
2023-08-15T08:41:13.523Z,26.36
2023-08-15T08:43:58.589Z,26.28
2023-08-15T08:46:43.733Z,26.09
2023-08-15T08:49:28.812Z,26.12
2023-08-15T08:52:13.878Z,26.34
2023-08-15T08:54:58.824Z,26.70
2023-08-15T08:57:43.974Z,26.96
2023-08-15T09:00:29.007Z,27.13
2023-08-15T09:03:14.078Z,27.31
2023-08-15T09:05:59.218Z,27.38
2023-08-15T09:08:44.278Z,27.27
2023-08-15T09:11:29.299Z,27.32
2023-08-15T09:14:14.259Z,26.94
2023-08-15T09:16:59.564Z,26.81
2023-08-15T09:19:44.585Z,26.81
2023-08-15T09:22:29.750Z,26.92
2023-08-15T09:25:14.698Z,27.13
2023-08-15T09:27:59.757Z,27.42
2023-08-15T09:30:44.807Z,27.71
2023-08-15T09:33:29.876Z,27.70
2023-08-15T09:36:15.096Z,27.78
2023-08-15T09:39:00.088Z,27.63
2023-08-15T09:41:45.287Z,27.25
2023-08-15T09:44:30.498Z,27.16
2023-08-15T09:47:15.558Z,27.36
2023-08-15T09:50:00.859Z,27.61
2023-08-15T09:52:46.572Z,27.75
2023-08-15T09:55:34.045Z,27.94
2023-08-15T09:58:19.124Z,28.21
2023-08-15T10:01:04.064Z,28.12
2023-08-15T10:03:49.311Z,28.34
2023-08-15T10:06:34.231Z,28.55
2023-08-15T10:09:19.369Z,28.47
2023-08-15T10:12:04.406Z,28.46
2023-08-15T10:14:49.545Z,28.60
2023-08-15T10:17:34.664Z,28.29
2023-08-15T10:20:19.709Z,27.65
2023-08-15T10:23:04.797Z,27.36
2023-08-15T10:25:50.329Z,26.95
2023-08-15T10:28:35.538Z,26.85
2023-08-15T10:31:20.592Z,26.89
2023-08-15T10:34:05.651Z,26.95
2023-08-15T10:36:50.777Z,27.28
2023-08-15T10:39:35.851Z,27.61
2023-08-15T10:42:21.066Z,27.87
2023-08-15T10:45:06.048Z,28.15
2023-08-15T10:47:51.214Z,28.38
2023-08-15T10:50:36.285Z,28.46
2023-08-15T10:53:21.469Z,28.76
2023-08-15T10:56:06.539Z,28.77
2023-08-15T10:58:51.622Z,28.65
2023-08-15T11:01:36.782Z,28.55
2023-08-15T11:04:21.784Z,28.39
2023-08-15T11:07:07.045Z,27.95
2023-08-15T11:09:51.936Z,28.00
2023-08-15T11:12:37.202Z,27.87
2023-08-15T11:15:22.280Z,27.58
2023-08-15T11:18:07.564Z,27.47
2023-08-15T11:20:52.691Z,27.50
2023-08-15T11:23:37.690Z,27.28
2023-08-15T11:26:23.014Z,27.23
2023-08-15T11:29:08.016Z,27.12
2023-08-15T11:31:53.295Z,27.14
2023-08-15T11:34:38.300Z,27.20
2023-08-15T11:37:23.844Z,27.57
2023-08-15T11:40:09.149Z,27.58
2023-08-15T11:42:54.230Z,27.75
2023-08-15T11:45:39.262Z,27.16
2023-08-15T11:48:24.316Z,27.23
2023-08-15T11:51:09.342Z,27.52
2023-08-15T11:53:54.248Z,27.97
2023-08-15T11:56:39.368Z,27.92
2023-08-15T11:59:24.414Z,28.30
2023-08-15T12:02:09.455Z,28.58
2023-08-15T12:04:54.698Z,28.55
2023-08-15T12:07:39.701Z,28.57
2023-08-15T12:10:24.865Z,28.70
2023-08-15T12:13:09.830Z,29.04
2023-08-15T12:15:54.971Z,29.21
2023-08-15T12:18:39.949Z,29.41
2023-08-15T12:21:25.031Z,29.43
2023-08-15T12:24:10.227Z,29.48
2023-08-15T12:26:55.222Z,29.42
2023-08-15T12:30:10.694Z,29.39
2023-08-15T12:32:45.072Z,29.50
2023-08-15T12:35:29.986Z,29.48
2023-08-15T12:38:15.075Z,29.52
2023-08-15T12:41:00.180Z,29.57
2023-08-15T12:43:45.470Z,29.63
2023-08-15T12:46:30.333Z,29.64
2023-08-15T12:49:15.320Z,29.72
2023-08-15T12:52:00.360Z,29.70
2023-08-15T12:54:45.331Z,29.94
2023-08-15T12:57:30.527Z,29.96
2023-08-15T13:00:15.594Z,29.76
2023-08-15T13:03:00.677Z,29.09
2023-08-15T13:05:45.758Z,28.90
2023-08-15T13:08:31.034Z,28.93
2023-08-15T13:11:16.024Z,29.12
2023-08-15T13:14:01.175Z,29.29
2023-08-15T13:16:46.294Z,29.59
2023-08-15T13:19:31.439Z,29.70
2023-08-15T13:22:16.659Z,29.93
2023-08-15T13:25:01.728Z,30.03
2023-08-15T13:27:46.898Z,30.28
2023-08-15T13:30:31.874Z,30.44
2023-08-15T13:33:17.566Z,30.57
2023-08-15T13:36:03.017Z,30.38
2023-08-15T13:38:48.061Z,30.23
2023-08-15T13:41:33.195Z,30.05
2023-08-15T13:44:19.171Z,30.07
2023-08-15T13:47:04.353Z,30.27
2023-08-15T13:49:51.429Z,30.56
2023-08-15T13:52:36.476Z,30.46
2023-08-15T13:55:21.515Z,30.41
2023-08-15T13:58:06.546Z,30.00
2023-08-15T14:00:51.670Z,30.04
2023-08-15T14:03:36.803Z,30.08
2023-08-15T14:06:21.859Z,30.21
2023-08-15T14:09:07.007Z,30.40
2023-08-15T14:11:52.034Z,30.50
2023-08-15T14:14:37.403Z,30.59
2023-08-15T14:17:22.420Z,30.60
2023-08-15T14:20:07.683Z,30.56
2023-08-15T14:22:52.773Z,30.46
2023-08-15T14:25:37.791Z,30.52
2023-08-15T14:28:22.981Z,30.52
2023-08-15T14:31:07.901Z,30.59
2023-08-15T14:33:53.078Z,30.57
2023-08-15T14:36:38.124Z,30.73
2023-08-15T14:39:23.315Z,30.90
2023-08-15T14:42:08.372Z,30.90
2023-08-15T14:44:54.754Z,30.97
2023-08-15T14:47:40.071Z,30.89
2023-08-15T14:50:25.072Z,30.85
2023-08-15T14:53:10.332Z,30.77
2023-08-15T14:55:55.401Z,30.75
2023-08-15T14:58:40.579Z,30.76
2023-08-15T15:01:25.700Z,30.78
2023-08-15T15:04:10.943Z,30.87
2023-08-15T15:06:55.948Z,31.01
2023-08-15T15:09:41.037Z,31.04
2023-08-15T15:12:26.234Z,30.98
2023-08-15T15:15:11.201Z,30.98
2023-08-15T15:17:56.471Z,30.94
2023-08-15T15:20:41.656Z,30.54
2023-08-15T15:23:26.746Z,30.43
2023-08-15T15:26:11.751Z,30.29
2023-08-15T15:28:56.763Z,30.38
2023-08-15T15:31:41.986Z,30.32
2023-08-15T15:34:27.019Z,30.22
2023-08-15T15:37:12.109Z,30.04
2023-08-15T15:39:57.500Z,30.08
2023-08-15T15:42:42.258Z,30.11
2023-08-15T15:45:27.356Z,30.19
2023-08-15T15:48:12.555Z,30.26
2023-08-15T15:50:57.705Z,30.25
2023-08-15T15:53:42.675Z,30.21
2023-08-15T15:56:27.811Z,29.99
2023-08-15T15:59:12.867Z,29.88
2023-08-15T16:01:58.024Z,29.73
2023-08-15T16:04:43.043Z,29.37
2023-08-15T16:07:28.148Z,29.10
2023-08-15T16:10:13.357Z,29.27
2023-08-15T16:12:58.373Z,29.23
2023-08-15T16:15:43.733Z,29.22
2023-08-15T16:18:28.789Z,29.28
2023-08-15T16:21:13.788Z,29.31
2023-08-15T16:23:58.911Z,29.27
2023-08-15T16:26:43.941Z,29.26
2023-08-15T16:29:29.196Z,28.95
2023-08-15T16:32:16.887Z,28.82
2023-08-15T16:35:02.236Z,28.82
2023-08-15T16:37:47.226Z,28.69
2023-08-15T16:40:32.299Z,28.61
2023-08-15T16:43:17.584Z,28.55
2023-08-15T16:46:02.591Z,28.44
2023-08-15T16:48:47.890Z,28.37
2023-08-15T16:51:33.004Z,28.31
2023-08-15T16:54:18.120Z,28.32
2023-08-15T16:57:03.124Z,28.42
2023-08-15T16:59:48.294Z,28.51
2023-08-15T17:02:33.664Z,28.50
2023-08-15T17:05:18.593Z,28.56
2023-08-15T17:08:03.638Z,28.60
2023-08-15T17:10:48.733Z,28.48
2023-08-15T17:13:33.903Z,28.41
2023-08-15T17:16:18.915Z,28.37
2023-08-15T17:19:04.004Z,28.24
2023-08-15T17:21:49.074Z,28.15
2023-08-15T17:24:34.131Z,28.17
2023-08-15T17:27:19.153Z,28.18
2023-08-15T17:30:04.090Z,28.17
2023-08-15T17:32:49.436Z,28.18
2023-08-15T17:35:34.320Z,28.19
2023-08-15T17:38:19.615Z,28.20
2023-08-15T17:41:04.692Z,28.18
2023-08-15T17:43:49.593Z,28.13
2023-08-15T17:46:34.907Z,28.12
2023-08-15T17:49:20.003Z,28.08
2023-08-15T17:52:05.189Z,28.06
2023-08-15T17:54:50.156Z,28.02
2023-08-15T17:57:35.390Z,28.04
2023-08-15T18:00:20.288Z,27.90
2023-08-15T18:03:05.485Z,27.73
2023-08-15T18:05:50.745Z,27.52
2023-08-15T18:08:35.853Z,27.39
2023-08-15T18:11:21.115Z,27.19
2023-08-15T18:14:06.234Z,27.06
2023-08-15T18:16:51.296Z,27.06
2023-08-15T18:19:36.340Z,27.04
2023-08-15T18:22:21.671Z,26.90
2023-08-15T18:25:06.553Z,26.78
2023-08-15T18:27:51.666Z,26.69
2023-08-15T18:30:36.837Z,26.58
2023-08-15T18:33:21.928Z,26.40
2023-08-15T18:36:07.129Z,26.16
2023-08-15T18:38:52.121Z,26.03
2023-08-15T18:41:37.409Z,25.93
2023-08-15T18:44:22.602Z,25.90
2023-08-15T18:47:07.742Z,25.82
2023-08-15T18:49:52.810Z,25.70
2023-08-15T18:52:37.851Z,25.58
2023-08-15T18:55:22.944Z,25.56
2023-08-15T18:58:07.987Z,25.50
2023-08-15T19:00:53.105Z,25.40
2023-08-15T19:03:38.367Z,25.37
2023-08-15T19:06:23.297Z,25.32
2023-08-15T19:09:08.402Z,25.22
2023-08-15T19:11:53.470Z,25.15
2023-08-15T19:14:38.694Z,25.17
2023-08-15T19:17:23.764Z,25.10
2023-08-15T19:20:08.970Z,24.99
2023-08-15T19:22:53.995Z,24.92
2023-08-15T19:25:39.085Z,24.90
2023-08-15T19:28:24.198Z,24.90
2023-08-15T19:31:09.273Z,24.85
2023-08-15T19:33:54.495Z,24.83
2023-08-15T19:36:39.641Z,24.78
2023-08-15T19:39:24.946Z,24.74
2023-08-15T19:42:10.001Z,24.73
2023-08-15T19:44:55.040Z,24.65
2023-08-15T19:47:40.189Z,24.63
2023-08-15T19:50:26.397Z,24.55
2023-08-15T19:53:12.272Z,24.46
2023-08-15T19:55:57.187Z,24.52
2023-08-15T19:58:42.439Z,24.68
2023-08-15T20:01:27.667Z,24.67
2023-08-15T20:04:12.607Z,24.56
2023-08-15T20:06:57.773Z,24.45
2023-08-15T20:09:48.828Z,24.34
2023-08-15T20:12:40.668Z,24.20
2023-08-15T20:15:25.743Z,24.13
2023-08-15T20:18:11.031Z,24.08
2023-08-15T20:20:56.156Z,24.01
2023-08-15T20:23:41.280Z,24.04
2023-08-15T20:26:26.357Z,23.97
2023-08-15T20:29:11.419Z,24.11
2023-08-15T20:31:56.557Z,24.03
2023-08-15T20:34:41.558Z,24.15
2023-08-15T20:37:26.679Z,24.06
2023-08-15T20:40:11.659Z,23.91
2023-08-15T20:42:56.782Z,23.73
2023-08-15T20:45:41.852Z,23.67
2023-08-15T20:48:27.031Z,23.53
2023-08-15T20:51:12.167Z,23.36
2023-08-15T20:53:57.148Z,23.36
2023-08-15T20:56:42.439Z,23.38
2023-08-15T20:59:27.457Z,23.33
2023-08-15T21:02:12.804Z,23.36
2023-08-15T21:04:57.838Z,23.47
2023-08-15T21:07:42.994Z,23.45
2023-08-15T21:10:30.031Z,23.46
2023-08-15T21:13:15.117Z,23.44
2023-08-15T21:16:00.182Z,23.53
2023-08-15T21:18:45.181Z,23.61
2023-08-15T21:21:30.188Z,23.60
2023-08-15T21:24:15.233Z,23.72
2023-08-15T21:27:00.497Z,23.75
2023-08-15T21:29:45.462Z,23.70
2023-08-15T21:32:30.562Z,23.51
2023-08-15T21:35:15.682Z,23.44
2023-08-15T21:38:00.651Z,23.32
2023-08-15T21:40:45.665Z,23.21
2023-08-15T21:43:30.758Z,23.21
2023-08-15T21:46:16.048Z,23.09
2023-08-15T21:49:01.201Z,23.01
2023-08-15T21:51:46.380Z,23.11
2023-08-15T21:54:31.594Z,23.20
2023-08-15T21:57:16.791Z,23.44
2023-08-15T22:00:01.758Z,23.64
2023-08-15T22:02:46.881Z,23.73
2023-08-15T22:05:31.890Z,23.67
2023-08-15T22:08:16.876Z,23.60
2023-08-15T22:11:01.940Z,23.66
2023-08-15T22:13:47.088Z,23.55
2023-08-15T22:16:32.152Z,23.49
2023-08-15T22:19:17.256Z,23.62
2023-08-15T22:22:02.293Z,23.80
2023-08-15T22:24:53.899Z,23.92
2023-08-15T22:27:42.636Z,24.00
2023-08-15T22:30:28.089Z,23.96
2023-08-15T22:33:13.184Z,23.90
2023-08-15T22:35:58.301Z,23.92
2023-08-15T22:38:43.352Z,23.99
2023-08-15T22:41:28.573Z,23.96
2023-08-15T22:44:13.767Z,24.02
2023-08-15T22:46:58.785Z,23.97
2023-08-15T22:49:44.103Z,23.94
2023-08-15T22:52:29.112Z,23.73
2023-08-15T22:55:14.412Z,23.70
2023-08-15T22:57:59.457Z,23.48
2023-08-15T23:00:44.605Z,23.23
2023-08-15T23:03:29.608Z,23.05
2023-08-15T23:06:14.623Z,22.93
2023-08-15T23:08:59.760Z,22.84
2023-08-15T23:11:44.817Z,22.77
2023-08-15T23:14:30.073Z,22.71
2023-08-15T23:17:15.139Z,22.66
2023-08-15T23:20:00.278Z,22.75
2023-08-15T23:22:45.404Z,22.64
2023-08-15T23:25:30.411Z,22.81
2023-08-15T23:28:15.661Z,22.98
2023-08-15T23:31:00.623Z,22.90
2023-08-15T23:33:45.802Z,22.78
2023-08-15T23:36:30.796Z,22.66
2023-08-15T23:39:16.055Z,22.54
2023-08-15T23:42:01.100Z,22.41
2023-08-15T23:44:46.177Z,22.55
2023-08-15T23:47:31.354Z,22.57
2023-08-15T23:50:16.552Z,22.49
2023-08-15T23:53:01.615Z,22.44
2023-08-15T23:55:46.790Z,22.33
2023-08-15T23:58:31.912Z,22.25
